Terminal Aerodrome Forecast
Issued by NWS

Home | Current Version | Previous Version | Text Only | Print | Product List | Glossary On
Versions: 1 2 3 4 5 6 7 8 9 10 11 12 13 14 15 16 17 18 19 20 21 22 23 24 25 26 27 28 29 30 31 32 33 34 35 36
000
FTUS42 KCAE 280838 AAA
TAFOGB
TAF AMD
KOGB 280838Z 2809/2906 00000KT 4SM BR SCT250
      TEMPO 2809/2812 2SM BR SCT010
     FM281300 24006KT P6SM SCT035
     FM282100 21007KT P6SM VCSH BKN050 OVC250
     FM290300 18004KT P6SM SCT060 BKN120=

USA.gov is the U.S. government's official web portal to all federal, state and local government web resources and services.